Terminal Aerodrome Forecast
Issued by NWS Louisville, KY

Home | Current Version | Previous Version | Text Only | Print | Product List | Glossary On
Versions: 1 2 3 4 5 6 7 8 9 10 11 12 13 14 15 16
452
FTUS43 KLMK 212320
TAFSDF
TAF
KSDF 212320Z 2200/2306 14005KT P6SM BKN110
     FM221000 07005KT P6SM VCSH BKN035
     FM221300 07005KT 5SM SHRA BR BKN015
     FM221500 08006KT 3SM SHRA VCTS BKN008CB
     FM222100 07007KT 4SM SHRA BKN015
     FM230100 01012KT 4SM -SHRA BR BKN015=

USA.gov is the U.S. government's official web portal to all federal, state and local government web resources and services.